Time;durP1;ratioP1;P1;durP2;ratioP2;P2;SDS_P1;SDS_P2;PMS_P1;PMS_P2;Temp;Humidity;BMP_temperature;BMP_pressure;BME280_temperature;BME280_humidity;BME280_pressure;Samples;Min_cycle;Max_cycle;Signal;HPM_P1;HPM_P2
2021/05/30 00:01:02;;;;;;;;;;;11.00;96.20;;;;;;5035748;28;20034;-73
2021/05/30 00:03:27;;;;;;;19.38;12.13;;;10.70;96.10;;;;;;5034043;28;19916;-73
2021/05/30 00:05:53;;;;;;;15.75;9.52;;;10.60;96.50;;;;;;5034814;28;20061;-73
2021/05/30 00:08:20;;;;;;;22.83;10.52;;;10.80;96.20;;;;;;5034925;28;20116;-73
2021/05/30 00:10:46;;;;;;;16.05;9.23;;;10.90;96.00;;;;;;5034568;28;20116;-73
2021/05/30 00:13:12;;;;;;;15.55;8.65;;;11.00;95.90;;;;;;5034693;28;20118;-73
2021/05/30 00:15:38;;;;;;;26.13;9.85;;;11.00;95.80;;;;;;5034754;28;20060;-73
2021/05/30 00:18:03;;;;;;;15.45;8.65;;;11.00;95.90;;;;;;5034818;28;20045;-73
2021/05/30 00:20:30;;;;;;;21.05;9.15;;;10.90;95.90;;;;;;5034600;28;20052;-73
2021/05/30 00:22:55;;;;;;;20.17;9.10;;;11.00;95.80;;;;;;5035215;28;20112;-73
2021/05/30 00:25:21;;;;;;;17.67;9.75;;;10.90;95.80;;;;;;5034941;28;20037;-73
2021/05/30 00:27:47;;;;;;;17.08;9.70;;;11.00;95.80;;;;;;5034591;28;20045;-73
2021/05/30 00:30:13;;;;;;;19.45;10.38;;;10.90;95.80;;;;;;5032845;28;20409;-73
2021/05/30 00:32:39;;;;;;;16.20;9.52;;;10.90;95.80;;;;;;5034350;28;20065;-73
2021/05/30 00:35:05;;;;;;;25.77;13.77;;;10.90;95.90;;;;;;5034913;28;20037;-73
2021/05/30 00:37:31;;;;;;;20.25;14.35;;;10.90;95.80;;;;;;5034390;28;20408;-73
2021/05/30 00:39:57;;;;;;;20.38;13.77;;;11.00;95.80;;;;;;5034017;28;20408;-73
2021/05/30 00:42:22;;;;;;;17.83;11.93;;;10.90;95.80;;;;;;5032989;28;20504;-73
2021/05/30 00:44:48;;;;;;;21.95;12.38;;;10.80;96.00;;;;;;5034328;28;20041;-73
2021/05/30 00:47:14;;;;;;;23.80;15.35;;;10.80;95.90;;;;;;5034075;28;20553;-73
2021/05/30 00:49:39;;;;;;;30.83;16.02;;;10.80;96.10;;;;;;5033917;28;20041;-73
2021/05/30 00:52:06;;;;;;;24.98;14.95;;;10.80;96.10;;;;;;5034008;28;20033;-73
2021/05/30 00:54:35;;;;;;;26.75;14.90;;;10.80;95.90;;;;;;5034002;28;20048;-72
2021/05/30 00:57:01;;;;;;;27.65;15.30;;;10.80;96.00;;;;;;5034072;28;20049;-73
2021/05/30 00:59:27;;;;;;;26.10;16.35;;;10.80;96.00;;;;;;5033546;28;20042;-73
2021/05/30 01:01:53;;;;;;;29.33;17.80;;;10.80;96.10;;;;;;5034082;28;20393;-73
2021/05/30 01:04:18;;;;;;;25.52;16.08;;;10.70;96.40;;;;;;5034202;28;20038;-73
2021/05/30 01:06:44;;;;;;;23.10;14.20;;;10.70;96.30;;;;;;5033916;28;20095;-73
2021/05/30 01:09:10;;;;;;;18.98;12.18;;;10.80;96.40;;;;;;5033477;28;20093;-73
2021/05/30 01:11:36;;;;;;;25.65;13.85;;;10.80;96.20;;;;;;5033560;28;20466;-73
2021/05/30 01:14:02;;;;;;;27.45;15.27;;;10.70;96.30;;;;;;5033681;28;20045;-73
2021/05/30 01:16:28;;;;;;;27.40;17.35;;;10.80;96.50;;;;;;5033803;28;20073;-73
2021/05/30 01:18:59;;;;;;;31.05;16.60;;;10.70;96.40;;;;;;5033673;28;20040;-73
2021/05/30 01:21:29;;;;;;;31.35;18.58;;;10.80;96.50;;;;;;5034143;28;20473;-73
2021/05/30 01:23:57;;;;;;;34.30;18.42;;;10.80;96.30;;;;;;5033867;28;20065;-73
2021/05/30 01:26:24;;;;;;;30.25;18.05;;;10.80;96.40;;;;;;5033436;28;20076;-73
2021/05/30 01:28:51;;;;;;;25.15;18.40;;;10.80;96.70;;;;;;5033295;28;20045;-73
2021/05/30 01:31:18;;;;;;;31.00;18.05;;;10.80;96.50;;;;;;5033352;28;20041;-73
2021/05/30 01:33:44;;;;;;;29.52;18.42;;;10.80;96.40;;;;;;5033373;28;20049;-73
2021/05/30 01:36:10;;;;;;;24.60;16.08;;;10.80;96.70;;;;;;5033816;28;20033;-73
2021/05/30 01:38:36;;;;;;;21.65;12.80;;;10.70;96.60;;;;;;5033762;28;20053;-73
2021/05/30 01:41:03;;;;;;;23.48;14.30;;;10.80;96.20;;;;;;5033429;28;20523;-73
2021/05/30 01:43:28;;;;;;;20.30;13.50;;;10.80;96.20;;;;;;5033256;28;20374;-73
2021/05/30 01:45:54;;;;;;;26.42;14.20;;;10.70;96.30;;;;;;5033669;28;20041;-72
2021/05/30 01:48:20;;;;;;;19.88;13.30;;;10.70;96.20;;;;;;5032060;28;20034;-72
2021/05/30 01:50:48;;;;;;;24.10;14.98;;;10.70;96.40;;;;;;5033012;28;20040;-73
2021/05/30 01:53:15;;;;;;;24.05;15.18;;;10.70;96.40;;;;;;5032726;28;20389;-72
2021/05/30 01:58:10;;;;;;;28.50;16.88;;;10.70;96.40;;;;;;5033630;28;20052;-72
2021/05/30 02:00:36;;;;;;;20.25;13.07;;;10.70;96.40;;;;;;5033245;28;20033;-73
2021/05/30 02:03:02;;;;;;;22.70;13.60;;;10.60;96.40;;;;;;5033499;28;20508;-72
2021/05/30 02:05:29;;;;;;;26.38;15.45;;;10.70;96.30;;;;;;5032917;28;20443;-73
2021/05/30 02:07:55;;;;;;;26.20;16.15;;;10.70;96.30;;;;;;5031991;28;20072;-72
2021/05/30 02:10:22;;;;;;;26.70;16.55;;;10.60;96.40;;;;;;5032680;28;20068;-72
2021/05/30 02:12:51;;;;;;;23.13;17.33;;;10.60;96.30;;;;;;5032847;28;20041;-72
2021/05/30 02:15:17;;;;;;;24.23;15.95;;;10.60;96.40;;;;;;5033101;28;20386;-72
2021/05/30 02:17:45;;;;;;;31.42;16.77;;;10.50;96.70;;;;;;5016197;28;20454;-72
2021/05/30 02:20:12;;;;;;;27.52;17.33;;;10.50;96.80;;;;;;5032523;28;20124;-72
2021/05/30 02:22:38;;;;;;;32.97;17.88;;;10.50;96.80;;;;;;5035825;28;20501;-72
2021/05/30 02:25:07;;;;;;;26.77;17.30;;;10.50;96.70;;;;;;5036800;28;20064;-72
2021/05/30 02:27:33;;;;;;;32.75;17.85;;;10.60;96.70;;;;;;5036624;28;20409;-72
2021/05/30 02:29:59;;;;;;;29.63;17.58;;;10.50;96.80;;;;;;5036267;28;20045;-72
2021/05/30 02:32:25;;;;;;;33.40;17.77;;;10.50;96.80;;;;;;5036911;28;20117;-73
2021/05/30 02:34:50;;;;;;;27.40;17.10;;;10.50;96.80;;;;;;5036591;28;20033;-72
2021/05/30 02:37:18;;;;;;;29.88;17.52;;;10.50;96.70;;;;;;5036538;28;20497;-72
2021/05/30 02:39:45;;;;;;;25.98;16.55;;;10.50;96.70;;;;;;5036152;28;20033;-72
2021/05/30 02:42:11;;;;;;;28.98;18.10;;;10.50;96.70;;;;;;5036411;28;20041;-72
2021/05/30 02:44:38;;;;;;;27.05;15.95;;;10.50;96.90;;;;;;5036379;28;20033;-72
2021/05/30 02:47:04;;;;;;;26.60;17.17;;;10.50;96.80;;;;;;5037106;28;20072;-72
2021/05/30 02:49:32;;;;;;;27.80;16.65;;;10.50;96.80;;;;;;5036238;28;20362;-73
2021/05/30 02:51:58;;;;;;;32.35;16.50;;;10.50;96.80;;;;;;5036461;28;20388;-72
2021/05/30 02:54:24;;;;;;;32.70;16.85;;;10.50;96.90;;;;;;5036192;28;20049;-73
2021/05/30 02:56:50;;;;;;;31.33;17.67;;;10.50;96.80;;;;;;5036223;28;20042;-72
2021/05/30 02:59:16;;;;;;;26.50;16.02;;;10.50;96.90;;;;;;5018146;28;20543;-73
2021/05/30 03:01:41;;;;;;;26.27;15.38;;;10.40;96.90;;;;;;5036686;28;20039;-72
2021/05/30 03:04:07;;;;;;;26.45;15.00;;;10.40;97.00;;;;;;5035970;28;20485;-72
2021/05/30 03:06:33;;;;;;;24.40;15.00;;;10.40;96.90;;;;;;5018668;28;20043;-72
2021/05/30 03:09:00;;;;;;;28.20;14.57;;;10.40;97.00;;;;;;5035959;28;20041;-73
2021/05/30 03:11:26;;;;;;;22.60;14.68;;;10.40;97.10;;;;;;5036187;28;20441;-73
2021/05/30 03:13:53;;;;;;;30.45;14.82;;;10.40;97.00;;;;;;5018252;28;20079;-73
2021/05/30 03:16:19;;;;;;;22.20;13.60;;;10.40;96.90;;;;;;5036402;28;20049;-73
2021/05/30 03:18:46;;;;;;;23.75;13.75;;;10.40;96.80;;;;;;5036068;28;20041;-73
2021/05/30 03:21:13;;;;;;;27.08;14.38;;;10.30;96.70;;;;;;5018277;28;20113;-73
2021/05/30 03:23:39;;;;;;;27.80;14.80;;;10.30;96.80;;;;;;5035764;28;20111;-72
2021/05/30 03:26:05;;;;;;;21.23;12.73;;;10.20;96.80;;;;;;5035599;28;20493;-72
2021/05/30 03:28:30;;;;;;;22.48;13.57;;;10.20;96.90;;;;;;5035839;28;20037;-73
2021/05/30 03:30:56;;;;;;;22.73;13.52;;;10.20;96.90;;;;;;5035614;28;20087;-73
2021/05/30 03:33:22;;;;;;;30.10;13.35;;;10.20;97.00;;;;;;5033417;28;20498;-73
2021/05/30 03:35:48;;;;;;;23.15;14.40;;;10.30;97.10;;;;;;5017782;28;20470;-73
2021/05/30 03:38:16;;;;;;;22.23;13.27;;;10.20;97.00;;;;;;5018124;28;20048;-73
2021/05/30 03:40:50;;;;;;;23.42;13.15;;;10.20;97.10;;;;;;5035114;28;20033;-73
2021/05/30 03:43:16;;;;;;;27.40;13.98;;;10.10;97.10;;;;;;5017783;28;20083;-73
2021/05/30 03:45:42;;;;;;;21.98;15.07;;;10.20;97.20;;;;;;5035900;28;20484;-73
2021/05/30 03:48:08;;;;;;;31.10;16.45;;;10.10;97.20;;;;;;5035245;28;20454;-72
2021/05/30 03:50:35;;;;;;;27.10;14.98;;;10.10;97.10;;;;;;5034831;28;20137;-73
2021/05/30 03:53:01;;;;;;;26.52;14.98;;;10.20;97.20;;;;;;5035195;28;20421;-73
2021/05/30 03:55:27;;;;;;;34.63;18.50;;;10.20;97.10;;;;;;5035109;28;20038;-72
2021/05/30 03:57:54;;;;;;;27.75;16.98;;;10.10;97.20;;;;;;5035736;28;20092;-72
2021/05/30 04:00:21;;;;;;;28.02;16.00;;;10.00;97.20;;;;;;5034920;28;20061;-73
2021/05/30 04:02:47;;;;;;;29.42;16.25;;;10.00;97.40;;;;;;5033818;28;20064;-73
2021/05/30 04:05:15;;;;;;;26.60;16.23;;;10.00;97.80;;;;;;5035277;28;20083;-73
2021/05/30 04:07:42;;;;;;;27.73;15.30;;;10.00;97.40;;;;;;5017664;28;20037;-73
2021/05/30 04:10:10;;;;;;;35.08;16.50;;;10.10;97.90;;;;;;5034387;28;20486;-73
2021/05/30 04:12:37;;;;;;;31.17;17.15;;;10.10;97.90;;;;;;5034567;28;20064;-73
2021/05/30 04:15:08;;;;;;;29.10;17.40;;;10.10;97.90;;;;;;5034788;28;20041;-73
2021/05/30 04:17:35;;;;;;;30.95;16.70;;;10.10;97.70;;;;;;5034819;28;20393;-73
2021/05/30 04:20:03;;;;;;;27.33;15.73;;;10.10;97.70;;;;;;5034223;28;20045;-73
2021/05/30 04:22:28;;;;;;;25.48;15.45;;;10.10;97.60;;;;;;5034651;28;20156;-73
2021/05/30 04:24:54;;;;;;;28.23;14.23;;;10.10;97.50;;;;;;5034564;28;20042;-73
2021/05/30 04:27:20;;;;;;;23.23;14.82;;;10.10;97.40;;;;;;5035211;28;20518;-73
2021/05/30 04:29:46;;;;;;;22.77;14.88;;;10.10;97.40;;;;;;5033995;28;20037;-73
2021/05/30 04:32:11;;;;;;;27.30;17.30;;;10.20;97.50;;;;;;5034525;28;20184;-73
2021/05/30 04:34:37;;;;;;;25.83;17.48;;;10.20;97.60;;;;;;5034685;28;20124;-73
2021/05/30 04:37:03;;;;;;;33.65;19.92;;;10.20;97.70;;;;;;5034393;28;20482;-73
2021/05/30 04:39:31;;;;;;;32.78;18.65;;;10.10;97.70;;;;;;5034127;28;20448;-73
2021/05/30 04:41:57;;;;;;;30.77;18.63;;;10.30;97.60;;;;;;5034826;28;20038;-73
2021/05/30 04:44:23;;;;;;;31.63;19.13;;;10.30;97.60;;;;;;5034012;28;20385;-73
2021/05/30 04:46:49;;;;;;;28.63;18.13;;;10.40;97.60;;;;;;5034183;28;20046;-73
2021/05/30 04:49:14;;;;;;;37.72;18.60;;;10.50;97.50;;;;;;5033896;28;20033;-73
2021/05/30 04:51:40;;;;;;;33.30;19.92;;;10.60;97.40;;;;;;5034574;28;20485;-73
2021/05/30 04:54:06;;;;;;;30.65;18.27;;;10.70;97.40;;;;;;5033211;28;20037;-73
2021/05/30 04:56:32;;;;;;;33.10;18.90;;;10.60;97.30;;;;;;5034532;28;20107;-73
2021/05/30 04:58:57;;;;;;;30.13;17.13;;;10.60;97.20;;;;;;5033999;28;20451;-73
2021/05/30 05:01:23;;;;;;;25.58;16.23;;;10.80;97.20;;;;;;5033788;28;20034;-73
2021/05/30 05:03:50;;;;;;;31.20;16.98;;;11.00;97.20;;;;;;5034205;28;20044;-73
2021/05/30 05:06:16;;;;;;;30.25;16.83;;;11.10;97.30;;;;;;5033706;28;20123;-73
2021/05/30 05:08:41;;;;;;;26.92;15.43;;;11.10;97.00;;;;;;5033601;28;20080;-73
2021/05/30 05:11:09;;;;;;;27.90;13.25;;;11.00;96.70;;;;;;5033530;28;20533;-73
2021/05/30 05:13:35;;;;;;;23.90;12.25;;;11.10;96.60;;;;;;5033565;28;20052;-73
2021/05/30 05:16:01;;;;;;;22.25;12.15;;;11.10;96.50;;;;;;5033587;28;20469;-73
2021/05/30 05:18:30;;;;;;;22.80;11.68;;;11.00;96.50;;;;;;5033775;28;20120;-73
2021/05/30 05:20:56;;;;;;;18.02;10.95;;;11.40;96.30;;;;;;5034114;28;20041;-73
2021/05/30 05:23:23;;;;;;;25.23;12.20;;;11.50;95.70;;;;;;5034164;28;20041;-73
2021/05/30 05:25:51;;;;;;;25.35;12.38;;;11.50;95.90;;;;;;5033518;28;20069;-73
2021/05/30 05:28:17;;;;;;;21.33;11.65;;;11.80;95.80;;;;;;5033487;28;20041;-73
2021/05/30 05:30:43;;;;;;;27.33;12.15;;;12.00;95.50;;;;;;5033354;28;20462;-73
2021/05/30 05:33:09;;;;;;;19.95;10.75;;;12.00;95.60;;;;;;5033399;28;20041;-73
2021/05/30 05:35:35;;;;;;;18.63;11.32;;;11.90;95.30;;;;;;5033863;28;20484;-73
2021/05/30 05:38:01;;;;;;;24.23;10.65;;;12.10;95.30;;;;;;5033932;28;20073;-73
2021/05/30 05:40:27;;;;;;;23.15;11.07;;;12.20;95.30;;;;;;5033092;28;20072;-73
2021/05/30 05:42:54;;;;;;;19.58;10.85;;;12.50;95.10;;;;;;5033244;28;20044;-73
2021/05/30 05:45:20;;;;;;;17.52;11.07;;;12.70;94.50;;;;;;5033225;28;20037;-73
2021/05/30 05:47:55;;;;;;;20.77;11.30;;;13.00;94.30;;;;;;5033938;28;20041;-73
2021/05/30 05:50:22;;;;;;;21.73;11.20;;;13.30;94.20;;;;;;5032817;28;20037;-73
2021/05/30 05:52:50;;;;;;;19.25;11.40;;;13.30;93.20;;;;;;5033240;28;20401;-73
2021/05/30 05:55:18;;;;;;;17.58;9.43;;;13.40;93.00;;;;;;5033299;28;20037;-73
2021/05/30 05:57:47;;;;;;;17.77;9.95;;;13.50;93.00;;;;;;5036106;28;20033;-73
2021/05/30 06:00:15;;;;;;;16.55;9.40;;;13.80;92.20;;;;;;5019234;28;20061;-73
2021/05/30 06:02:49;;;;;;;20.65;10.23;;;13.70;92.50;;;;;;5037233;28;20065;-73
2021/05/30 06:05:18;;;;;;;20.60;10.77;;;14.00;92.00;;;;;;5037162;28;20489;-72
2021/05/30 06:07:47;;;;;;;20.45;10.27;;;14.30;91.10;;;;;;5037087;28;20096;-73
2021/05/30 06:10:15;;;;;;;15.32;9.75;;;14.40;90.70;;;;;;5036696;28;20132;-73
2021/05/30 06:12:41;;;;;;;18.60;9.25;;;14.60;90.30;;;;;;5036860;28;20037;-73
2021/05/30 06:15:09;;;;;;;19.10;7.95;;;15.10;90.60;;;;;;5037529;28;20065;-73
2021/05/30 06:17:36;;;;;;;14.85;8.50;;;15.30;89.40;;;;;;5037492;28;20047;-73
2021/05/30 06:20:02;;;;;;;12.45;7.40;;;15.30;88.70;;;;;;5036713;28;20099;-73
2021/05/30 06:22:29;;;;;;;15.73;7.78;;;15.60;89.20;;;;;;5037040;28;20046;-73
2021/05/30 06:24:54;;;;;;;15.73;8.13;;;15.60;87.70;;;;;;5035674;28;20040;-73
2021/05/30 06:27:21;;;;;;;18.58;8.65;;;15.40;88.20;;;;;;5037186;28;20052;-73
2021/05/30 06:29:47;;;;;;;13.05;6.88;;;15.80;88.60;;;;;;5036422;28;20432;-73
2021/05/30 06:32:13;;;;;;;15.90;7.80;;;16.20;88.20;;;;;;5036628;28;20068;-73
2021/05/30 06:34:39;;;;;;;20.23;9.40;;;16.20;87.10;;;;;;5036849;28;20517;-73
2021/05/30 06:37:05;;;;;;;24.48;9.15;;;16.30;85.60;;;;;;5036687;28;20073;-73
2021/05/30 06:39:32;;;;;;;15.43;8.05;;;16.20;86.10;;;;;;5036430;28;20399;-73
2021/05/30 06:41:57;;;;;;;16.75;8.38;;;16.20;85.00;;;;;;5036439;28;20052;-73
2021/05/30 06:44:23;;;;;;;16.92;8.43;;;16.20;83.20;;;;;;5036398;28;20092;-73
2021/05/30 06:46:49;;;;;;;16.23;8.20;;;16.10;83.10;;;;;;5036605;28;20497;-73
2021/05/30 06:49:15;;;;;;;18.02;8.65;;;16.00;83.10;;;;;;5036135;28;20466;-73
2021/05/30 06:51:41;;;;;;;18.63;8.82;;;16.10;84.40;;;;;;5036241;28;20045;-73
2021/05/30 06:54:09;;;;;;;18.92;8.00;;;16.20;84.00;;;;;;5036479;28;20037;-73
2021/05/30 06:56:35;;;;;;;15.10;8.57;;;16.70;85.10;;;;;;5036582;28;20041;-71
2021/05/30 06:59:02;;;;;;;16.88;8.80;;;16.50;84.00;;;;;;5035850;28;20068;-73
2021/05/30 07:01:27;;;;;;;15.48;8.57;;;16.20;85.00;;;;;;5036719;28;20095;-73
2021/05/30 07:03:53;;;;;;;14.38;8.40;;;16.50;83.00;;;;;;5036054;28;20041;-73
2021/05/30 07:06:19;;;;;;;17.15;10.02;;;16.60;85.10;;;;;;5036242;28;20370;-73
2021/05/30 07:08:59;;;;;;;17.85;9.18;;;16.60;84.30;;;;;;5035809;28;20044;-74
2021/05/30 07:11:25;;;;;;;16.90;10.35;;;16.90;84.20;;;;;;5036301;28;20037;-73
2021/05/30 07:13:51;;;;;;;18.48;10.02;;;17.10;82.80;;;;;;5036424;28;20037;-73
2021/05/30 07:16:17;;;;;;;18.77;11.00;;;17.10;82.30;;;;;;5036432;28;20052;-73
2021/05/30 07:18:42;;;;;;;16.73;10.10;;;16.90;81.70;;;;;;5035584;28;20493;-74
2021/05/30 07:21:08;;;;;;;18.67;9.70;;;17.00;81.70;;;;;;5035682;28;20044;-73
2021/05/30 07:23:35;;;;;;;22.02;10.68;;;17.20;82.50;;;;;;5035681;28;20088;-73
2021/05/30 07:26:02;;;;;;;16.98;11.02;;;17.60;82.20;;;;;;5036241;28;20378;-73
2021/05/30 07:28:30;;;;;;;21.15;11.85;;;17.90;80.70;;;;;;5035910;28;20048;-74
2021/05/30 07:30:57;;;;;;;17.63;10.90;;;17.80;80.30;;;;;;5035519;28;20044;-73
2021/05/30 07:33:27;;;;;;;20.38;11.93;;;17.90;81.20;;;;;;5035747;28;20033;-73
2021/05/30 07:35:53;;;;;;;19.00;11.32;;;17.80;79.70;;;;;;5035613;28;20087;-74
2021/05/30 07:38:20;;;;;;;15.75;10.88;;;17.80;81.40;;;;;;5035461;28;20042;-74
2021/05/30 07:40:46;;;;;;;21.98;12.82;;;18.40;81.50;;;;;;5035644;28;20061;-73
2021/05/30 07:43:12;;;;;;;17.77;11.80;;;18.30;79.70;;;;;;5035885;28;20461;-74
2021/05/30 07:45:39;;;;;;;24.65;13.00;;;18.30;79.50;;;;;;5035596;28;20042;-73
2021/05/30 07:48:05;;;;;;;18.40;12.15;;;18.40;80.40;;;;;;5035535;28;20072;-73
2021/05/30 07:50:31;;;;;;;22.63;11.82;;;18.20;78.70;;;;;;5034995;28;20033;-73
2021/05/30 07:52:59;;;;;;;21.67;12.65;;;18.60;79.80;;;;;;5034574;28;20041;-73
2021/05/30 07:55:38;;;;;;;17.10;11.02;;;18.80;77.90;;;;;;5034296;28;20557;-73
2021/05/30 07:58:04;;;;;;;18.15;11.68;;;18.80;78.40;;;;;;5041682;28;20108;-73
2021/05/30 08:00:29;;;;;;;18.65;11.50;;;18.30;78.20;;;;;;5054340;28;20186;-72
2021/05/30 08:02:55;;;;;;;19.00;11.20;;;18.90;77.80;;;;;;5054777;28;20029;-73
2021/05/30 08:05:21;;;;;;;19.33;11.57;;;18.80;77.60;;;;;;5054953;28;20534;-73
2021/05/30 08:07:49;;;;;;;19.80;13.05;;;19.00;78.50;;;;;;5055421;28;20037;-73
2021/05/30 08:10:17;;;;;;;20.55;12.02;;;18.70;76.90;;;;;;5054299;28;20179;-74
2021/05/30 08:12:43;;;;;;;20.08;12.38;;;18.90;77.30;;;;;;5054641;28;20116;-73
2021/05/30 08:15:10;;;;;;;21.33;12.02;;;18.30;76.20;;;;;;5054601;28;20120;-73
2021/05/30 08:17:37;;;;;;;22.00;13.48;;;18.70;78.20;;;;;;5054931;28;20048;-73
2021/05/30 08:20:18;;;;;;;21.15;12.70;;;18.40;77.20;;;;;;5053556;28;20413;-73
2021/05/30 08:22:45;;;;;;;23.60;12.80;;;18.80;78.30;;;;;;5054486;28;20045;-73
2021/05/30 08:25:11;;;;;;;18.33;11.52;;;19.10;78.80;;;;;;5054342;28;20120;-73
2021/05/30 08:27:36;;;;;;;21.75;11.57;;;19.30;77.20;;;;;;5054929;28;20171;-73
2021/05/30 08:30:05;;;;;;;21.88;12.98;;;19.50;77.20;;;;;;5054292;28;20132;-74
2021/05/30 08:32:30;;;;;;;21.13;11.48;;;19.40;75.70;;;;;;5054798;28;20044;-74
2021/05/30 08:34:56;;;;;;;19.33;13.05;;;19.30;76.80;;;;;;5054948;28;20037;-73
2021/05/30 08:37:22;;;;;;;21.27;12.93;;;19.40;76.80;;;;;;5054715;28;20053;-73
2021/05/30 08:39:51;;;;;;;15.13;11.30;;;19.90;77.50;;;;;;5053765;28;20481;-73
2021/05/30 08:46:27;;;;;;;17.17;12.02;;;19.90;74.30;;;;;;5032009;28;20539;-74
2021/05/30 08:49:23;;;;;;;18.53;11.67;;;19.80;74.50;;;;;;5054359;28;20048;-74
2021/05/30 08:51:52;;;;;;;16.90;11.57;;;19.80;74.70;;;;;;5032365;28;20536;-74
2021/05/30 08:54:19;;;;;;;21.75;11.85;;;19.70;76.40;;;;;;5054170;28;20159;-74
2021/05/30 08:56:47;;;;;;;21.90;11.13;;;19.80;76.90;;;;;;5053965;28;20079;-74
2021/05/30 08:59:34;;;;;;;19.33;12.30;;;19.70;76.00;;;;;;5053586;28;20040;-73
2021/05/30 09:02:09;;;;;;;15.20;11.55;;;19.90;76.10;;;;;;5054380;28;20037;-73
2021/05/30 09:04:39;;;;;;;15.05;11.13;;;19.90;75.10;;;;;;5054074;28;20044;-73
2021/05/30 09:07:06;;;;;;;17.15;10.55;;;20.10;75.50;;;;;;5054100;28;20063;-73
2021/05/30 09:09:43;;;;;;;12.32;8.45;;;19.70;74.80;;;;;;5053419;28;20115;-73
2021/05/30 09:12:29;;;;;;;22.30;11.00;;;19.90;75.80;;;;;;5053895;28;20032;-71
2021/05/30 09:14:57;;;;;;;18.35;10.52;;;20.10;74.90;;;;;;5053979;28;20041;-71
2021/05/30 09:17:26;;;;;;;13.30;10.27;;;20.20;76.50;;;;;;5053929;28;20045;-71
2021/05/30 09:19:53;;;;;;;13.75;10.30;;;20.30;75.00;;;;;;5035325;28;20048;-71
2021/05/30 09:22:28;;;;;;;15.77;9.82;;;20.40;75.10;;;;;;5054249;28;20086;-71
2021/05/30 09:25:00;;;;;;;15.25;9.30;;;20.50;74.30;;;;;;5054266;28;20112;-71
2021/05/30 09:27:27;;;;;;;19.98;10.63;;;20.20;73.40;;;;;;5053901;28;20043;-71
2021/05/30 09:30:17;;;;;;;13.23;9.52;;;19.20;76.50;;;;;;5052925;28;20492;-71
2021/05/30 09:32:53;;;;;;;16.27;9.85;;;19.10;74.80;;;;;;5053322;28;20049;-70
2021/05/30 09:35:22;;;;;;;18.25;9.73;;;19.40;75.50;;;;;;5053546;28;20110;-70
2021/05/30 09:38:03;;;;;;;15.88;10.02;;;19.60;75.90;;;;;;5054088;28;20041;-70
2021/05/30 09:40:43;;;;;;;20.10;11.60;;;19.80;75.80;;;;;;5053192;28;20064;-71
2021/05/30 09:43:16;;;;;;;16.63;10.27;;;19.90;74.30;;;;;;5053215;28;20033;-71
2021/05/30 09:45:56;;;;;;;13.23;9.32;;;20.00;76.20;;;;;;5053376;28;20041;-71
2021/05/30 09:48:22;;;;;;;14.00;9.35;;;20.10;76.20;;;;;;5035981;28;20434;-72
2021/05/30 09:51:07;;;;;;;16.42;8.93;;;20.00;77.00;;;;;;5052883;28;20044;-72
2021/05/30 09:53:41;;;;;;;14.27;8.55;;;20.20;76.50;;;;;;5053212;28;20115;-72
2021/05/30 09:56:26;;;;;;;16.88;8.82;;;19.80;76.90;;;;;;5053126;28;20409;-72
2021/05/30 09:58:52;;;;;;;17.80;9.60;;;19.60;74.30;;;;;;5052790;28;20095;-72
2021/05/30 10:01:18;;;;;;;14.88;8.43;;;18.90;76.20;;;;;;5053008;28;20115;-71
2021/05/30 10:03:44;;;;;;;16.98;8.18;;;18.90;77.90;;;;;;5052675;28;20120;-71
2021/05/30 10:06:10;;;;;;;16.05;9.18;;;19.30;78.70;;;;;;5053455;28;20064;-72
2021/05/30 10:08:36;;;;;;;16.50;8.93;;;19.70;78.30;;;;;;5052827;28;20037;-72
2021/05/30 10:11:02;;;;;;;14.15;8.80;;;18.50;77.50;;;;;;5053579;28;20041;-72
2021/05/30 10:13:29;;;;;;;12.13;8.00;;;19.20;79.00;;;;;;5052911;28;20488;-71
2021/05/30 10:15:55;;;;;;;12.90;8.68;;;19.60;79.00;;;;;;5035288;28;20108;-72
2021/05/30 10:18:31;;;;;;;14.65;8.15;;;19.60;77.40;;;;;;5052890;28;20041;-72
2021/05/30 10:20:57;;;;;;;14.90;8.63;;;19.40;77.80;;;;;;5052789;28;20108;-72
2021/05/30 10:23:23;;;;;;;14.63;8.52;;;19.50;77.40;;;;;;5053279;28;20191;-72
2021/05/30 10:25:49;;;;;;;15.82;8.38;;;19.40;77.80;;;;;;5052775;28;20033;-71
2021/05/30 10:28:20;;;;;;;16.20;9.70;;;19.30;79.20;;;;;;5052810;28;20043;-72
2021/05/30 10:30:51;;;;;;;12.45;8.10;;;19.40;77.90;;;;;;5052388;28;20041;-71
2021/05/30 10:33:19;;;;;;;13.10;7.65;;;19.10;78.90;;;;;;5052687;28;20493;-71
2021/05/30 10:35:49;;;;;;;12.93;7.82;;;19.10;79.80;;;;;;5052921;28;20036;-71
2021/05/30 10:38:36;;;;;;;13.65;7.35;;;19.30;78.00;;;;;;5053265;28;20108;-72
2021/05/30 10:41:19;;;;;;;13.25;7.90;;;19.50;80.00;;;;;;5052808;28;20121;-71
2021/05/30 10:43:46;;;;;;;10.93;7.63;;;19.50;78.50;;;;;;5055883;28;20083;-72
2021/05/30 10:46:12;;;;;;;11.40;7.65;;;19.30;78.50;;;;;;5056328;28;20477;-72
2021/05/30 10:48:39;;;;;;;18.08;8.07;;;19.20;79.60;;;;;;5055757;28;20083;-72
2021/05/30 10:53:46;;;;;;;13.15;7.90;;;19.20;78.80;;;;;;5056415;28;20112;-72
2021/05/30 10:56:30;;;;;;;10.95;6.78;;;19.00;77.80;;;;;;5056642;28;20099;-71
2021/05/30 10:59:11;;;;;;;12.95;6.80;;;19.10;78.30;;;;;;5056281;28;20544;-72
2021/05/30 11:01:38;;;;;;;8.65;6.20;;;19.20;78.50;;;;;;5056053;28;20086;-71
2021/05/30 11:04:29;;;;;;;15.68;8.10;;;19.20;79.00;;;;;;5056013;28;20039;-71
2021/05/30 11:06:56;;;;;;;12.55;6.97;;;19.00;77.70;;;;;;5056073;28;20053;-71
2021/05/30 11:09:23;;;;;;;10.52;6.38;;;18.40;77.90;;;;;;5056026;28;20041;-71
2021/05/30 11:12:18;;;;;;;13.20;7.05;;;18.40;79.40;;;;;;5037872;28;20041;-72
2021/05/30 11:15:06;;;;;;;12.50;7.05;;;18.60;80.30;;;;;;5056229;28;20041;-71
2021/05/30 11:17:40;;;;;;;12.13;6.93;;;18.60;77.70;;;;;;5055936;28;20053;-72
2021/05/30 11:20:09;;;;;;;14.65;7.22;;;18.60;80.60;;;;;;5055597;28;20036;-71
2021/05/30 11:22:42;;;;;;;11.38;6.72;;;18.60;79.40;;;;;;5056099;28;20037;-71
2021/05/30 11:25:09;;;;;;;13.05;6.50;;;18.60;78.80;;;;;;5055538;28;20041;-71
2021/05/30 11:28:10;;;;;;;11.43;5.60;;;18.90;80.30;;;;;;5055681;28;20063;-71
2021/05/30 11:30:40;;;;;;;14.77;6.43;;;19.10;77.20;;;;;;5055022;28;20119;-71
2021/05/30 11:33:14;;;;;;;11.98;5.97;;;19.20;77.70;;;;;;5056422;28;20087;-71
2021/05/30 11:35:40;;;;;;;8.48;5.55;;;19.00;77.30;;;;;;5055482;28;20424;-71
2021/05/30 11:38:06;;;;;;;13.07;5.82;;;19.20;79.10;;;;;;5055494;28;20350;-70
2021/05/30 11:40:34;;;;;;;12.30;6.07;;;18.80;78.40;;;;;;5037166;28;20044;-70
2021/05/30 11:43:16;;;;;;;12.98;6.45;;;19.00;79.10;;;;;;5055214;28;20037;-71
2021/05/30 11:45:45;;;;;;;13.93;7.13;;;19.00;77.50;;;;;;5055477;28;20033;-71
2021/05/30 11:48:17;;;;;;;11.50;6.80;;;19.00;75.30;;;;;;5055576;28;20113;-71
2021/05/30 11:50:52;;;;;;;10.70;6.90;;;19.10;77.70;;;;;;5054684;28;20044;-71
2021/05/30 11:53:27;;;;;;;13.07;8.60;;;19.10;79.80;;;;;;5055049;28;20283;-70
2021/05/30 11:55:53;;;;;;;17.88;7.70;;;19.20;80.40;;;;;;5054363;28;20094;-71
2021/05/30 11:58:19;;;;;;;12.90;7.30;;;19.00;78.00;;;;;;5037309;28;20048;-71
2021/05/30 12:00:45;;;;;;;13.00;6.07;;;18.80;78.50;;;;;;5054744;28;20037;-71
2021/05/30 12:03:14;;;;;;;14.57;7.22;;;19.00;81.30;;;;;;5054835;28;20044;-71
2021/05/30 12:05:40;;;;;;;11.95;7.22;;;18.90;79.80;;;;;;5055473;28;20424;-72
2021/05/30 12:08:16;;;;;;;12.48;6.43;;;19.00;79.00;;;;;;5054935;28;20041;-71
2021/05/30 12:10:53;;;;;;;12.07;7.00;;;19.00;78.70;;;;;;5054400;28;20033;-72
2021/05/30 12:13:36;;;;;;;12.40;7.05;;;18.50;79.60;;;;;;5054718;28;20094;-72
2021/05/30 12:16:17;;;;;;;13.05;7.70;;;18.60;79.30;;;;;;5054536;28;20102;-72
2021/05/30 12:18:59;;;;;;;14.00;7.25;;;18.50;80.60;;;;;;5054749;28;20419;-72
2021/05/30 12:21:38;;;;;;;12.30;7.40;;;18.90;82.50;;;;;;5054587;28;20457;-72
2021/05/30 12:24:05;;;;;;;12.30;7.35;;;18.80;81.50;;;;;;5055254;28;20388;-72
2021/05/30 12:26:31;;;;;;;11.40;7.78;;;18.50;82.10;;;;;;5055110;28;20037;-72
2021/05/30 12:28:57;;;;;;;14.90;9.48;;;18.60;82.50;;;;;;5054126;28;20567;-72
2021/05/30 12:31:23;;;;;;;14.75;8.30;;;18.30;82.50;;;;;;5054905;28;20076;-72
2021/05/30 12:34:03;;;;;;;15.23;9.20;;;18.50;82.30;;;;;;5055003;28;20116;-72
2021/05/30 12:36:34;;;;;;;14.05;8.48;;;18.50;82.10;;;;;;5054857;28;20119;-72
2021/05/30 12:39:06;;;;;;;16.38;8.77;;;18.20;82.50;;;;;;5054158;28;20466;-71
2021/05/30 12:41:38;;;;;;;15.07;8.30;;;18.40;83.20;;;;;;5054748;28;20064;-71
2021/05/30 12:44:15;;;;;;;15.48;6.88;;;18.60;83.30;;;;;;5054806;28;20037;-71
2021/05/30 12:47:07;;;;;;;13.77;9.02;;;18.80;83.20;;;;;;5054082;28;20457;-72